sensor_id;sensor_type;location;lat;lon;timestamp;P1;durP1;ratioP1;P2;durP2;ratioP2
74170;SDS011;62526;50.948;6.590;2022-12-07T00:01:49;25.43;;;14.63;;
74170;SDS011;62526;50.948;6.590;2022-12-07T00:04:17;22.07;;;15.40;;
74170;SDS011;62526;50.948;6.590;2022-12-07T00:06:44;19.07;;;9.07;;
74170;SDS011;62526;50.948;6.590;2022-12-07T00:09:11;26.27;;;13.40;;
74170;SDS011;62526;50.948;6.590;2022-12-07T00:11:38;20.40;;;13.50;;
74170;SDS011;62526;50.948;6.590;2022-12-07T00:14:06;22.43;;;14.90;;
74170;SDS011;62526;50.948;6.590;2022-12-07T00:16:32;13.03;;;7.37;;
74170;SDS011;62526;50.948;6.590;2022-12-07T00:18:58;16.47;;;9.73;;
74170;SDS011;62526;50.948;6.590;2022-12-07T00:21:25;26.10;;;15.37;;
74170;SDS011;62526;50.948;6.590;2022-12-07T00:23:54;20.93;;;11.30;;
74170;SDS011;62526;50.948;6.590;2022-12-07T00:26:21;22.50;;;11.80;;
74170;SDS011;62526;50.948;6.590;2022-12-07T00:28:50;25.93;;;13.47;;
74170;SDS011;62526;50.948;6.590;2022-12-07T00:31:17;17.90;;;11.20;;
74170;SDS011;62526;50.948;6.590;2022-12-07T00:33:43;19.03;;;12.60;;
74170;SDS011;62526;50.948;6.590;2022-12-07T00:36:11;20.40;;;11.03;;
74170;SDS011;62526;50.948;6.590;2022-12-07T00:38:37;13.00;;;8.80;;
74170;SDS011;62526;50.948;6.590;2022-12-07T00:41:05;23.13;;;14.00;;
74170;SDS011;62526;50.948;6.590;2022-12-07T00:43:31;34.10;;;17.33;;
74170;SDS011;62526;50.948;6.590;2022-12-07T00:45:58;21.93;;;13.33;;
74170;SDS011;62526;50.948;6.590;2022-12-07T00:48:24;27.87;;;14.73;;
74170;SDS011;62526;50.948;6.590;2022-12-07T00:50:52;21.07;;;14.13;;
74170;SDS011;62526;50.948;6.590;2022-12-07T00:53:18;18.53;;;10.90;;
74170;SDS011;62526;50.948;6.590;2022-12-07T00:55:45;23.40;;;13.00;;
74170;SDS011;62526;50.948;6.590;2022-12-07T00:58:11;27.87;;;16.43;;
74170;SDS011;62526;50.948;6.590;2022-12-07T01:00:38;30.70;;;18.67;;
74170;SDS011;62526;50.948;6.590;2022-12-07T01:03:06;34.67;;;17.47;;
74170;SDS011;62526;50.948;6.590;2022-12-07T01:05:33;29.60;;;16.20;;
74170;SDS011;62526;50.948;6.590;2022-12-07T01:08:00;25.30;;;14.97;;
74170;SDS011;62526;50.948;6.590;2022-12-07T01:10:26;32.30;;;16.20;;
74170;SDS011;62526;50.948;6.590;2022-12-07T01:12:53;33.57;;;18.00;;
74170;SDS011;62526;50.948;6.590;2022-12-07T01:15:21;32.77;;;18.23;;
74170;SDS011;62526;50.948;6.590;2022-12-07T01:17:48;24.00;;;15.83;;
74170;SDS011;62526;50.948;6.590;2022-12-07T01:20:15;21.77;;;14.67;;
74170;SDS011;62526;50.948;6.590;2022-12-07T01:22:42;34.57;;;18.93;;
74170;SDS011;62526;50.948;6.590;2022-12-07T01:25:09;30.20;;;18.53;;
74170;SDS011;62526;50.948;6.590;2022-12-07T01:27:35;27.13;;;18.10;;
74170;SDS011;62526;50.948;6.590;2022-12-07T01:30:03;35.90;;;18.77;;
74170;SDS011;62526;50.948;6.590;2022-12-07T01:32:29;34.53;;;19.83;;
74170;SDS011;62526;50.948;6.590;2022-12-07T01:34:56;32.53;;;18.20;;
74170;SDS011;62526;50.948;6.590;2022-12-07T01:37:23;32.17;;;18.20;;
74170;SDS011;62526;50.948;6.590;2022-12-07T01:39:51;31.20;;;19.00;;
74170;SDS011;62526;50.948;6.590;2022-12-07T01:42:17;31.63;;;16.73;;
74170;SDS011;62526;50.948;6.590;2022-12-07T01:47:23;28.97;;;17.70;;
74170;SDS011;62526;50.948;6.590;2022-12-07T01:49:50;30.27;;;16.37;;
74170;SDS011;62526;50.948;6.590;2022-12-07T01:52:18;26.57;;;17.37;;
74170;SDS011;62526;50.948;6.590;2022-12-07T01:54:44;33.03;;;20.40;;
74170;SDS011;62526;50.948;6.590;2022-12-07T01:57:10;32.33;;;20.97;;
74170;SDS011;62526;50.948;6.590;2022-12-07T01:59:37;25.07;;;17.57;;
74170;SDS011;62526;50.948;6.590;2022-12-07T02:02:04;36.40;;;19.13;;
74170;SDS011;62526;50.948;6.590;2022-12-07T02:04:30;35.87;;;19.97;;
74170;SDS011;62526;50.948;6.590;2022-12-07T02:06:57;27.90;;;16.53;;
74170;SDS011;62526;50.948;6.590;2022-12-07T02:09:23;28.73;;;16.63;;
74170;SDS011;62526;50.948;6.590;2022-12-07T02:11:51;31.97;;;19.47;;
74170;SDS011;62526;50.948;6.590;2022-12-07T02:14:17;30.03;;;18.03;;
74170;SDS011;62526;50.948;6.590;2022-12-07T02:16:51;24.77;;;17.17;;
74170;SDS011;62526;50.948;6.590;2022-12-07T02:20:30;29.43;;;18.40;;
74170;SDS011;62526;50.948;6.590;2022-12-07T02:24:52;34.57;;;20.33;;
74170;SDS011;62526;50.948;6.590;2022-12-07T02:27:25;24.93;;;16.30;;
74170;SDS011;62526;50.948;6.590;2022-12-07T02:30:08;31.50;;;18.23;;
74170;SDS011;62526;50.948;6.590;2022-12-07T02:32:40;26.73;;;18.43;;
74170;SDS011;62526;50.948;6.590;2022-12-07T02:35:12;33.80;;;19.17;;
74170;SDS011;62526;50.948;6.590;2022-12-07T02:37:49;33.17;;;18.03;;
74170;SDS011;62526;50.948;6.590;2022-12-07T02:40:34;30.30;;;18.47;;
74170;SDS011;62526;50.948;6.590;2022-12-07T02:43:06;30.47;;;16.33;;
74170;SDS011;62526;50.948;6.590;2022-12-07T02:45:30;22.00;;;13.83;;
74170;SDS011;62526;50.948;6.590;2022-12-07T02:47:57;30.00;;;16.77;;
74170;SDS011;62526;50.948;6.590;2022-12-07T02:50:24;33.80;;;18.20;;
74170;SDS011;62526;50.948;6.590;2022-12-07T02:52:51;30.60;;;17.90;;
74170;SDS011;62526;50.948;6.590;2022-12-07T02:55:19;33.30;;;19.90;;
74170;SDS011;62526;50.948;6.590;2022-12-07T02:57:53;22.97;;;14.03;;
74170;SDS011;62526;50.948;6.590;2022-12-07T03:00:18;25.67;;;15.70;;
74170;SDS011;62526;50.948;6.590;2022-12-07T03:03:04;28.17;;;16.73;;
74170;SDS011;62526;50.948;6.590;2022-12-07T03:05:53;24.90;;;15.53;;
74170;SDS011;62526;50.948;6.590;2022-12-07T03:08:19;28.27;;;18.70;;
74170;SDS011;62526;50.948;6.590;2022-12-07T03:11:03;31.97;;;18.57;;
74170;SDS011;62526;50.948;6.590;2022-12-07T03:16:06;25.60;;;13.00;;
74170;SDS011;62526;50.948;6.590;2022-12-07T03:18:38;32.93;;;20.20;;
74170;SDS011;62526;50.948;6.590;2022-12-07T03:21:05;25.10;;;16.50;;
74170;SDS011;62526;50.948;6.590;2022-12-07T03:23:30;33.47;;;18.33;;
74170;SDS011;62526;50.948;6.590;2022-12-07T03:25:57;31.70;;;17.73;;
74170;SDS011;62526;50.948;6.590;2022-12-07T03:28:24;27.97;;;13.53;;
74170;SDS011;62526;50.948;6.590;2022-12-07T03:30:52;30.70;;;15.90;;
74170;SDS011;62526;50.948;6.590;2022-12-07T03:33:20;24.13;;;13.33;;
74170;SDS011;62526;50.948;6.590;2022-12-07T03:35:49;31.43;;;17.10;;
74170;SDS011;62526;50.948;6.590;2022-12-07T03:38:19;29.53;;;14.90;;
74170;SDS011;62526;50.948;6.590;2022-12-07T03:40:48;37.43;;;19.03;;
74170;SDS011;62526;50.948;6.590;2022-12-07T03:43:15;23.97;;;16.23;;
74170;SDS011;62526;50.948;6.590;2022-12-07T03:45:43;28.00;;;18.10;;
74170;SDS011;62526;50.948;6.590;2022-12-07T03:50:48;30.30;;;18.30;;
74170;SDS011;62526;50.948;6.590;2022-12-07T03:53:16;28.13;;;16.80;;
74170;SDS011;62526;50.948;6.590;2022-12-07T03:55:45;29.00;;;15.17;;
74170;SDS011;62526;50.948;6.590;2022-12-07T03:58:13;24.90;;;14.10;;
74170;SDS011;62526;50.948;6.590;2022-12-07T04:00:40;20.33;;;12.57;;
74170;SDS011;62526;50.948;6.590;2022-12-07T04:03:07;26.97;;;17.07;;
74170;SDS011;62526;50.948;6.590;2022-12-07T04:05:34;23.53;;;13.60;;
74170;SDS011;62526;50.948;6.590;2022-12-07T04:08:00;26.37;;;14.80;;
74170;SDS011;62526;50.948;6.590;2022-12-07T04:10:27;27.47;;;16.03;;
74170;SDS011;62526;50.948;6.590;2022-12-07T04:12:55;22.27;;;13.27;;
74170;SDS011;62526;50.948;6.590;2022-12-07T04:15:21;30.80;;;17.57;;
74170;SDS011;62526;50.948;6.590;2022-12-07T04:17:48;15.60;;;10.93;;
74170;SDS011;62526;50.948;6.590;2022-12-07T04:20:16;21.80;;;14.60;;
74170;SDS011;62526;50.948;6.590;2022-12-07T04:22:43;39.10;;;20.13;;
74170;SDS011;62526;50.948;6.590;2022-12-07T04:25:09;37.77;;;20.10;;
74170;SDS011;62526;50.948;6.590;2022-12-07T04:27:36;28.87;;;17.53;;
74170;SDS011;62526;50.948;6.590;2022-12-07T04:30:03;24.07;;;15.73;;
74170;SDS011;62526;50.948;6.590;2022-12-07T04:32:31;36.60;;;19.77;;
74170;SDS011;62526;50.948;6.590;2022-12-07T04:34:58;32.60;;;18.80;;
74170;SDS011;62526;50.948;6.590;2022-12-07T04:37:25;31.83;;;19.87;;
74170;SDS011;62526;50.948;6.590;2022-12-07T04:39:51;39.23;;;20.60;;
74170;SDS011;62526;50.948;6.590;2022-12-07T04:42:18;38.17;;;21.03;;
74170;SDS011;62526;50.948;6.590;2022-12-07T04:44:46;27.93;;;16.37;;
74170;SDS011;62526;50.948;6.590;2022-12-07T04:47:12;33.40;;;19.90;;
74170;SDS011;62526;50.948;6.590;2022-12-07T04:49:40;32.23;;;18.37;;
74170;SDS011;62526;50.948;6.590;2022-12-07T04:52:06;28.20;;;15.17;;
74170;SDS011;62526;50.948;6.590;2022-12-07T04:54:33;33.77;;;18.07;;
74170;SDS011;62526;50.948;6.590;2022-12-07T04:57:00;34.47;;;19.10;;
74170;SDS011;62526;50.948;6.590;2022-12-07T04:59:26;38.43;;;18.50;;
74170;SDS011;62526;50.948;6.590;2022-12-07T05:01:53;35.40;;;19.13;;
74170;SDS011;62526;50.948;6.590;2022-12-07T05:04:19;35.80;;;19.60;;
74170;SDS011;62526;50.948;6.590;2022-12-07T05:06:46;39.63;;;23.33;;
74170;SDS011;62526;50.948;6.590;2022-12-07T05:09:13;38.70;;;21.80;;
74170;SDS011;62526;50.948;6.590;2022-12-07T05:11:40;41.67;;;22.93;;
74170;SDS011;62526;50.948;6.590;2022-12-07T05:14:09;45.37;;;23.57;;
74170;SDS011;62526;50.948;6.590;2022-12-07T05:16:37;37.53;;;18.53;;
74170;SDS011;62526;50.948;6.590;2022-12-07T05:19:04;41.27;;;22.17;;
74170;SDS011;62526;50.948;6.590;2022-12-07T05:21:31;42.10;;;22.40;;
74170;SDS011;62526;50.948;6.590;2022-12-07T05:23:57;41.67;;;20.33;;
74170;SDS011;62526;50.948;6.590;2022-12-07T05:26:24;44.70;;;23.87;;
74170;SDS011;62526;50.948;6.590;2022-12-07T05:28:52;41.80;;;21.03;;
74170;SDS011;62526;50.948;6.590;2022-12-07T05:31:19;33.20;;;19.83;;
74170;SDS011;62526;50.948;6.590;2022-12-07T05:33:45;45.07;;;20.70;;
74170;SDS011;62526;50.948;6.590;2022-12-07T05:36:12;40.93;;;21.50;;
74170;SDS011;62526;50.948;6.590;2022-12-07T05:38:38;35.30;;;19.93;;
74170;SDS011;62526;50.948;6.590;2022-12-07T05:41:05;42.20;;;21.03;;
74170;SDS011;62526;50.948;6.590;2022-12-07T05:43:32;34.13;;;18.93;;
74170;SDS011;62526;50.948;6.590;2022-12-07T05:45:59;33.23;;;20.00;;
74170;SDS011;62526;50.948;6.590;2022-12-07T05:50:48;30.27;;;18.07;;
74170;SDS011;62526;50.948;6.590;2022-12-07T05:53:15;38.20;;;19.67;;
74170;SDS011;62526;50.948;6.590;2022-12-07T05:55:43;35.43;;;19.43;;
74170;SDS011;62526;50.948;6.590;2022-12-07T05:58:09;30.20;;;18.10;;
74170;SDS011;62526;50.948;6.590;2022-12-07T06:00:41;23.57;;;13.20;;
74170;SDS011;62526;50.948;6.590;2022-12-07T06:03:09;32.03;;;18.37;;
74170;SDS011;62526;50.948;6.590;2022-12-07T06:05:36;34.87;;;20.07;;
74170;SDS011;62526;50.948;6.590;2022-12-07T06:08:03;23.67;;;13.60;;
74170;SDS011;62526;50.948;6.590;2022-12-07T06:10:30;38.00;;;19.83;;
74170;SDS011;62526;50.948;6.590;2022-12-07T06:12:57;24.47;;;15.00;;
74170;SDS011;62526;50.948;6.590;2022-12-07T06:15:24;27.90;;;13.93;;
74170;SDS011;62526;50.948;6.590;2022-12-07T06:17:50;33.87;;;18.70;;
74170;SDS011;62526;50.948;6.590;2022-12-07T06:20:18;24.60;;;15.63;;
74170;SDS011;62526;50.948;6.590;2022-12-07T06:22:44;39.37;;;23.37;;
74170;SDS011;62526;50.948;6.590;2022-12-07T06:25:11;25.67;;;15.57;;
74170;SDS011;62526;50.948;6.590;2022-12-07T06:27:38;34.03;;;19.80;;
74170;SDS011;62526;50.948;6.590;2022-12-07T06:30:05;40.00;;;21.80;;
74170;SDS011;62526;50.948;6.590;2022-12-07T06:32:35;42.60;;;23.47;;
74170;SDS011;62526;50.948;6.590;2022-12-07T06:35:01;41.97;;;23.00;;
74170;SDS011;62526;50.948;6.590;2022-12-07T06:37:27;37.03;;;22.27;;
74170;SDS011;62526;50.948;6.590;2022-12-07T06:39:54;37.40;;;21.47;;
74170;SDS011;62526;50.948;6.590;2022-12-07T06:42:21;33.70;;;18.53;;
74170;SDS011;62526;50.948;6.590;2022-12-07T06:44:48;41.90;;;22.93;;
74170;SDS011;62526;50.948;6.590;2022-12-07T06:47:14;32.77;;;18.93;;
74170;SDS011;62526;50.948;6.590;2022-12-07T06:49:42;34.47;;;20.50;;
74170;SDS011;62526;50.948;6.590;2022-12-07T06:52:09;31.07;;;17.97;;
74170;SDS011;62526;50.948;6.590;2022-12-07T06:54:36;34.10;;;19.03;;
74170;SDS011;62526;50.948;6.590;2022-12-07T06:57:02;26.67;;;15.70;;
74170;SDS011;62526;50.948;6.590;2022-12-07T06:59:30;30.70;;;17.80;;
74170;SDS011;62526;50.948;6.590;2022-12-07T07:01:56;34.87;;;18.70;;
74170;SDS011;62526;50.948;6.590;2022-12-07T07:04:23;25.47;;;14.60;;
74170;SDS011;62526;50.948;6.590;2022-12-07T07:06:50;30.63;;;16.53;;
74170;SDS011;62526;50.948;6.590;2022-12-07T07:09:18;33.10;;;18.37;;
74170;SDS011;62526;50.948;6.590;2022-12-07T07:11:45;32.40;;;17.87;;
74170;SDS011;62526;50.948;6.590;2022-12-07T07:14:12;35.30;;;20.23;;
74170;SDS011;62526;50.948;6.590;2022-12-07T07:16:39;40.53;;;20.83;;
74170;SDS011;62526;50.948;6.590;2022-12-07T07:19:05;38.50;;;19.20;;
74170;SDS011;62526;50.948;6.590;2022-12-07T07:21:32;31.53;;;17.63;;
74170;SDS011;62526;50.948;6.590;2022-12-07T07:23:58;29.47;;;16.03;;
74170;SDS011;62526;50.948;6.590;2022-12-07T07:26:25;19.90;;;12.20;;
74170;SDS011;62526;50.948;6.590;2022-12-07T07:28:52;26.10;;;12.83;;
74170;SDS011;62526;50.948;6.590;2022-12-07T07:31:18;25.17;;;13.43;;
74170;SDS011;62526;50.948;6.590;2022-12-07T07:33:45;34.00;;;19.47;;
74170;SDS011;62526;50.948;6.590;2022-12-07T07:36:11;33.57;;;17.83;;
74170;SDS011;62526;50.948;6.590;2022-12-07T07:38:38;37.33;;;19.33;;
74170;SDS011;62526;50.948;6.590;2022-12-07T07:41:05;21.70;;;12.67;;
74170;SDS011;62526;50.948;6.590;2022-12-07T07:43:32;26.17;;;16.17;;
74170;SDS011;62526;50.948;6.590;2022-12-07T07:45:59;30.23;;;16.17;;
74170;SDS011;62526;50.948;6.590;2022-12-07T07:48:26;32.73;;;17.73;;
74170;SDS011;62526;50.948;6.590;2022-12-07T07:50:53;33.53;;;18.40;;
74170;SDS011;62526;50.948;6.590;2022-12-07T07:53:21;37.77;;;18.13;;
74170;SDS011;62526;50.948;6.590;2022-12-07T07:55:51;29.57;;;16.40;;
74170;SDS011;62526;50.948;6.590;2022-12-07T07:58:17;23.37;;;13.17;;
74170;SDS011;62526;50.948;6.590;2022-12-07T08:00:44;19.87;;;11.37;;
74170;SDS011;62526;50.948;6.590;2022-12-07T08:03:11;24.90;;;15.60;;
74170;SDS011;62526;50.948;6.590;2022-12-07T08:05:37;27.33;;;13.27;;
74170;SDS011;62526;50.948;6.590;2022-12-07T08:08:04;13.40;;;9.43;;
74170;SDS011;62526;50.948;6.590;2022-12-07T08:10:30;20.53;;;13.03;;
74170;SDS011;62526;50.948;6.590;2022-12-07T08:12:57;15.83;;;9.57;;
74170;SDS011;62526;50.948;6.590;2022-12-07T08:15:30;27.70;;;15.03;;
74170;SDS011;62526;50.948;6.590;2022-12-07T08:17:56;18.87;;;10.70;;
74170;SDS011;62526;50.948;6.590;2022-12-07T08:20:22;21.33;;;11.17;;
74170;SDS011;62526;50.948;6.590;2022-12-07T08:22:49;25.90;;;14.50;;
74170;SDS011;62526;50.948;6.590;2022-12-07T08:25:18;23.20;;;13.40;;
74170;SDS011;62526;50.948;6.590;2022-12-07T08:27:44;28.37;;;14.77;;
74170;SDS011;62526;50.948;6.590;2022-12-07T08:30:11;19.73;;;11.97;;
74170;SDS011;62526;50.948;6.590;2022-12-07T08:32:38;15.57;;;8.33;;
74170;SDS011;62526;50.948;6.590;2022-12-07T08:35:04;24.57;;;15.93;;
74170;SDS011;62526;50.948;6.590;2022-12-07T08:37:32;27.67;;;13.73;;
74170;SDS011;62526;50.948;6.590;2022-12-07T08:39:59;21.13;;;11.37;;
74170;SDS011;62526;50.948;6.590;2022-12-07T08:42:25;26.77;;;14.97;;
74170;SDS011;62526;50.948;6.590;2022-12-07T08:44:52;33.53;;;16.60;;
74170;SDS011;62526;50.948;6.590;2022-12-07T08:47:19;28.07;;;15.43;;
74170;SDS011;62526;50.948;6.590;2022-12-07T08:49:46;17.03;;;10.20;;
74170;SDS011;62526;50.948;6.590;2022-12-07T08:52:12;33.17;;;17.00;;
74170;SDS011;62526;50.948;6.590;2022-12-07T08:54:39;28.30;;;14.53;;
74170;SDS011;62526;50.948;6.590;2022-12-07T08:57:07;35.03;;;15.37;;
74170;SDS011;62526;50.948;6.590;2022-12-07T08:59:34;29.47;;;15.20;;
74170;SDS011;62526;50.948;6.590;2022-12-07T09:02:00;32.33;;;18.00;;
74170;SDS011;62526;50.948;6.590;2022-12-07T09:04:27;29.43;;;15.93;;
74170;SDS011;62526;50.948;6.590;2022-12-07T09:06:53;36.80;;;18.40;;
74170;SDS011;62526;50.948;6.590;2022-12-07T09:09:20;17.27;;;8.07;;
74170;SDS011;62526;50.948;6.590;2022-12-07T09:11:47;32.50;;;15.80;;
74170;SDS011;62526;50.948;6.590;2022-12-07T09:14:14;30.43;;;15.90;;
74170;SDS011;62526;50.948;6.590;2022-12-07T09:16:40;33.87;;;17.83;;
74170;SDS011;62526;50.948;6.590;2022-12-07T09:19:07;27.27;;;15.53;;
74170;SDS011;62526;50.948;6.590;2022-12-07T09:21:34;28.03;;;15.90;;
74170;SDS011;62526;50.948;6.590;2022-12-07T09:24:00;25.43;;;14.33;;
74170;SDS011;62526;50.948;6.590;2022-12-07T09:26:27;24.27;;;12.73;;
74170;SDS011;62526;50.948;6.590;2022-12-07T09:28:54;30.03;;;15.30;;
74170;SDS011;62526;50.948;6.590;2022-12-07T09:31:21;30.77;;;15.17;;
74170;SDS011;62526;50.948;6.590;2022-12-07T09:33:52;21.50;;;12.37;;
74170;SDS011;62526;50.948;6.590;2022-12-07T09:36:15;22.43;;;12.13;;
74170;SDS011;62526;50.948;6.590;2022-12-07T09:38:41;22.13;;;12.57;;
74170;SDS011;62526;50.948;6.590;2022-12-07T09:41:08;23.07;;;11.97;;
74170;SDS011;62526;50.948;6.590;2022-12-07T09:43:35;18.70;;;10.53;;
74170;SDS011;62526;50.948;6.590;2022-12-07T09:46:02;16.50;;;9.30;;
74170;SDS011;62526;50.948;6.590;2022-12-07T09:48:30;24.00;;;12.00;;
74170;SDS011;62526;50.948;6.590;2022-12-07T09:50:57;19.77;;;10.30;;
74170;SDS011;62526;50.948;6.590;2022-12-07T09:53:26;19.93;;;10.67;;
74170;SDS011;62526;50.948;6.590;2022-12-07T09:55:53;16.60;;;9.43;;
74170;SDS011;62526;50.948;6.590;2022-12-07T09:58:21;18.17;;;9.47;;
74170;SDS011;62526;50.948;6.590;2022-12-07T10:00:47;18.93;;;10.80;;
74170;SDS011;62526;50.948;6.590;2022-12-07T10:03:13;15.77;;;8.77;;
74170;SDS011;62526;50.948;6.590;2022-12-07T10:05:41;19.93;;;10.13;;
74170;SDS011;62526;50.948;6.590;2022-12-07T10:08:15;22.57;;;10.07;;
74170;SDS011;62526;50.948;6.590;2022-12-07T10:10:43;21.70;;;10.90;;
74170;SDS011;62526;50.948;6.590;2022-12-07T10:13:11;17.37;;;8.83;;
74170;SDS011;62526;50.948;6.590;2022-12-07T10:15:43;16.93;;;9.40;;
74170;SDS011;62526;50.948;6.590;2022-12-07T10:18:32;20.90;;;9.03;;
74170;SDS011;62526;50.948;6.590;2022-12-07T10:21:04;21.73;;;10.57;;
74170;SDS011;62526;50.948;6.590;2022-12-07T10:23:31;21.37;;;10.43;;
74170;SDS011;62526;50.948;6.590;2022-12-07T10:25:57;20.33;;;9.37;;
74170;SDS011;62526;50.948;6.590;2022-12-07T10:28:27;19.07;;;10.70;;
74170;SDS011;62526;50.948;6.590;2022-12-07T10:30:57;19.10;;;9.27;;
74170;SDS011;62526;50.948;6.590;2022-12-07T10:33:30;11.83;;;6.37;;
74170;SDS011;62526;50.948;6.590;2022-12-07T10:35:58;14.93;;;9.63;;
74170;SDS011;62526;50.948;6.590;2022-12-07T10:38:25;11.80;;;6.10;;
74170;SDS011;62526;50.948;6.590;2022-12-07T10:40:52;12.20;;;6.13;;
74170;SDS011;62526;50.948;6.590;2022-12-07T10:43:18;10.57;;;5.80;;
74170;SDS011;62526;50.948;6.590;2022-12-07T10:45:57;16.27;;;8.07;;
74170;SDS011;62526;50.948;6.590;2022-12-07T10:48:38;19.60;;;7.17;;
74170;SDS011;62526;50.948;6.590;2022-12-07T10:56:42;15.23;;;9.27;;
74170;SDS011;62526;50.948;6.590;2022-12-07T10:59:24;19.03;;;9.37;;
74170;SDS011;62526;50.948;6.590;2022-12-07T11:02:19;20.40;;;11.53;;
74170;SDS011;62526;50.948;6.590;2022-12-07T11:04:53;19.00;;;9.23;;
74170;SDS011;62526;50.948;6.590;2022-12-07T11:07:38;25.40;;;11.70;;
74170;SDS011;62526;50.948;6.590;2022-12-07T11:10:08;13.73;;;7.90;;
74170;SDS011;62526;50.948;6.590;2022-12-07T11:12:40;24.30;;;11.83;;
74170;SDS011;62526;50.948;6.590;2022-12-07T11:15:17;17.10;;;9.33;;
74170;SDS011;62526;50.948;6.590;2022-12-07T11:18:11;19.17;;;11.17;;
74170;SDS011;62526;50.948;6.590;2022-12-07T11:20:43;14.97;;;8.87;;
74170;SDS011;62526;50.948;6.590;2022-12-07T11:23:13;16.63;;;10.17;;
74170;SDS011;62526;50.948;6.590;2022-12-07T11:25:41;17.50;;;10.90;;
74170;SDS011;62526;50.948;6.590;2022-12-07T11:28:18;15.73;;;11.20;;
74170;SDS011;62526;50.948;6.590;2022-12-07T11:30:51;23.53;;;11.47;;
74170;SDS011;62526;50.948;6.590;2022-12-07T11:33:31;18.43;;;10.97;;
74170;SDS011;62526;50.948;6.590;2022-12-07T11:38:53;25.37;;;10.27;;
74170;SDS011;62526;50.948;6.590;2022-12-07T11:41:20;18.67;;;9.07;;
74170;SDS011;62526;50.948;6.590;2022-12-07T11:43:54;16.03;;;9.63;;
74170;SDS011;62526;50.948;6.590;2022-12-07T11:46:24;15.60;;;8.50;;
74170;SDS011;62526;50.948;6.590;2022-12-07T11:48:52;13.60;;;6.77;;
74170;SDS011;62526;50.948;6.590;2022-12-07T11:51:16;18.80;;;9.73;;
74170;SDS011;62526;50.948;6.590;2022-12-07T11:53:45;11.17;;;7.60;;
74170;SDS011;62526;50.948;6.590;2022-12-07T11:56:16;18.20;;;8.67;;
74170;SDS011;62526;50.948;6.590;2022-12-07T11:58:44;18.90;;;9.70;;
74170;SDS011;62526;50.948;6.590;2022-12-07T12:04:13;16.57;;;9.63;;
74170;SDS011;62526;50.948;6.590;2022-12-07T12:06:49;15.63;;;9.00;;
74170;SDS011;62526;50.948;6.590;2022-12-07T12:09:19;15.83;;;8.30;;
74170;SDS011;62526;50.948;6.590;2022-12-07T12:12:21;11.07;;;7.50;;
74170;SDS011;62526;50.948;6.590;2022-12-07T12:14:55;15.87;;;9.53;;
74170;SDS011;62526;50.948;6.590;2022-12-07T12:22:50;18.03;;;9.47;;
74170;SDS011;62526;50.948;6.590;2022-12-07T12:25:20;15.30;;;8.93;;
74170;SDS011;62526;50.948;6.590;2022-12-07T12:27:50;18.80;;;10.50;;
74170;SDS011;62526;50.948;6.590;2022-12-07T12:32:51;13.43;;;8.17;;
74170;SDS011;62526;50.948;6.590;2022-12-07T12:37:55;15.50;;;8.67;;
74170;SDS011;62526;50.948;6.590;2022-12-07T12:43:21;23.67;;;11.57;;
74170;SDS011;62526;50.948;6.590;2022-12-07T12:45:32;18.23;;;10.07;;
74170;SDS011;62526;50.948;6.590;2022-12-07T12:47:59;13.00;;;5.00;;
74170;SDS011;62526;50.948;6.590;2022-12-07T12:50:27;13.77;;;7.73;;
74170;SDS011;62526;50.948;6.590;2022-12-07T12:52:53;12.17;;;6.40;;
74170;SDS011;62526;50.948;6.590;2022-12-07T13:00:39;13.50;;;8.57;;
74170;SDS011;62526;50.948;6.590;2022-12-07T13:03:16;21.00;;;9.73;;
74170;SDS011;62526;50.948;6.590;2022-12-07T13:05:34;16.90;;;9.03;;
74170;SDS011;62526;50.948;6.590;2022-12-07T13:08:02;20.53;;;11.67;;
74170;SDS011;62526;50.948;6.590;2022-12-07T13:10:36;14.60;;;8.40;;
74170;SDS011;62526;50.948;6.590;2022-12-07T13:13:28;14.33;;;8.17;;
74170;SDS011;62526;50.948;6.590;2022-12-07T13:15:52;9.93;;;6.60;;
74170;SDS011;62526;50.948;6.590;2022-12-07T13:18:36;19.27;;;9.83;;
74170;SDS011;62526;50.948;6.590;2022-12-07T13:24:01;15.40;;;7.83;;
74170;SDS011;62526;50.948;6.590;2022-12-07T13:26:45;22.73;;;10.47;;
74170;SDS011;62526;50.948;6.590;2022-12-07T13:29:13;21.03;;;9.63;;
74170;SDS011;62526;50.948;6.590;2022-12-07T13:31:44;18.27;;;10.37;;
74170;SDS011;62526;50.948;6.590;2022-12-07T13:36:52;14.23;;;6.13;;
74170;SDS011;62526;50.948;6.590;2022-12-07T13:39:20;13.53;;;7.90;;
74170;SDS011;62526;50.948;6.590;2022-12-07T13:41:49;16.77;;;5.90;;
74170;SDS011;62526;50.948;6.590;2022-12-07T13:44:14;11.10;;;6.80;;
74170;SDS011;62526;50.948;6.590;2022-12-07T13:49:17;17.73;;;8.00;;
74170;SDS011;62526;50.948;6.590;2022-12-07T13:51:44;12.30;;;5.77;;
74170;SDS011;62526;50.948;6.590;2022-12-07T13:54:12;11.37;;;6.73;;
74170;SDS011;62526;50.948;6.590;2022-12-07T13:56:38;13.87;;;7.43;;
74170;SDS011;62526;50.948;6.590;2022-12-07T13:59:07;12.90;;;5.50;;
74170;SDS011;62526;50.948;6.590;2022-12-07T14:01:47;11.63;;;6.07;;
74170;SDS011;62526;50.948;6.590;2022-12-07T14:06:52;11.63;;;6.67;;
74170;SDS011;62526;50.948;6.590;2022-12-07T14:09:20;10.47;;;4.90;;
74170;SDS011;62526;50.948;6.590;2022-12-07T14:11:46;8.70;;;5.23;;
74170;SDS011;62526;50.948;6.590;2022-12-07T14:14:15;10.97;;;7.17;;
74170;SDS011;62526;50.948;6.590;2022-12-07T14:16:40;13.33;;;6.97;;
74170;SDS011;62526;50.948;6.590;2022-12-07T14:19:39;14.07;;;8.03;;
74170;SDS011;62526;50.948;6.590;2022-12-07T14:21:39;9.40;;;5.40;;
74170;SDS011;62526;50.948;6.590;2022-12-07T14:24:11;11.90;;;7.20;;
74170;SDS011;62526;50.948;6.590;2022-12-07T14:26:52;13.63;;;6.97;;
74170;SDS011;62526;50.948;6.590;2022-12-07T14:29:19;11.13;;;7.53;;
74170;SDS011;62526;50.948;6.590;2022-12-07T14:31:46;8.97;;;6.30;;
74170;SDS011;62526;50.948;6.590;2022-12-07T14:34:12;13.80;;;6.60;;
74170;SDS011;62526;50.948;6.590;2022-12-07T14:36:39;12.67;;;8.03;;
74170;SDS011;62526;50.948;6.590;2022-12-07T14:39:06;13.00;;;7.20;;
74170;SDS011;62526;50.948;6.590;2022-12-07T14:41:33;12.53;;;6.87;;
74170;SDS011;62526;50.948;6.590;2022-12-07T14:44:09;11.87;;;6.57;;
74170;SDS011;62526;50.948;6.590;2022-12-07T14:46:35;13.90;;;6.63;;
74170;SDS011;62526;50.948;6.590;2022-12-07T14:49:03;13.23;;;6.60;;
74170;SDS011;62526;50.948;6.590;2022-12-07T14:51:30;10.47;;;5.60;;
74170;SDS011;62526;50.948;6.590;2022-12-07T14:53:56;9.30;;;5.53;;
74170;SDS011;62526;50.948;6.590;2022-12-07T14:56:23;11.43;;;6.10;;
74170;SDS011;62526;50.948;6.590;2022-12-07T14:58:49;12.30;;;5.73;;
74170;SDS011;62526;50.948;6.590;2022-12-07T15:01:16;11.87;;;5.43;;
74170;SDS011;62526;50.948;6.590;2022-12-07T15:03:43;9.77;;;5.57;;
74170;SDS011;62526;50.948;6.590;2022-12-07T15:06:10;11.00;;;6.00;;
74170;SDS011;62526;50.948;6.590;2022-12-07T15:08:37;10.20;;;6.13;;
74170;SDS011;62526;50.948;6.590;2022-12-07T15:11:04;18.37;;;7.00;;
74170;SDS011;62526;50.948;6.590;2022-12-07T15:13:31;12.63;;;6.63;;
74170;SDS011;62526;50.948;6.590;2022-12-07T15:16:03;15.90;;;4.90;;
74170;SDS011;62526;50.948;6.590;2022-12-07T15:18:30;4.10;;;3.33;;
74170;SDS011;62526;50.948;6.590;2022-12-07T15:20:56;9.10;;;5.60;;
74170;SDS011;62526;50.948;6.590;2022-12-07T15:23:24;9.23;;;5.33;;
74170;SDS011;62526;50.948;6.590;2022-12-07T15:25:51;4.27;;;2.83;;
74170;SDS011;62526;50.948;6.590;2022-12-07T15:28:18;5.53;;;2.60;;